sensor_id;sensor_type;location;lat;lon;timestamp;temperature;humidity
52867;DHT22;38739;53.324;6.862;2024-01-07T00:02:11;0.20;99.90
52867;DHT22;38739;53.324;6.862;2024-01-07T00:04:36;0.10;99.90
52867;DHT22;38739;53.324;6.862;2024-01-07T00:07:04;0.20;99.90
52867;DHT22;38739;53.324;6.862;2024-01-07T00:09:29;0.20;99.90
52867;DHT22;38739;53.324;6.862;2024-01-07T00:11:55;0.20;99.90
52867;DHT22;38739;53.324;6.862;2024-01-07T00:14:21;0.20;99.90
52867;DHT22;38739;53.324;6.862;2024-01-07T00:16:46;0.20;99.90
52867;DHT22;38739;53.324;6.862;2024-01-07T00:19:12;0.20;99.90
52867;DHT22;38739;53.324;6.862;2024-01-07T00:21:38;0.20;99.90
52867;DHT22;38739;53.324;6.862;2024-01-07T00:24:03;0.20;99.90
52867;DHT22;38739;53.324;6.862;2024-01-07T00:26:29;0.20;99.90
52867;DHT22;38739;53.324;6.862;2024-01-07T00:28:55;0.20;99.90
52867;DHT22;38739;53.324;6.862;2024-01-07T00:31:20;0.20;99.90
52867;DHT22;38739;53.324;6.862;2024-01-07T00:33:46;0.20;99.90
52867;DHT22;38739;53.324;6.862;2024-01-07T00:36:12;0.20;99.90
52867;DHT22;38739;53.324;6.862;2024-01-07T00:38:38;0.20;99.90
52867;DHT22;38739;53.324;6.862;2024-01-07T00:41:03;0.20;99.90
52867;DHT22;38739;53.324;6.862;2024-01-07T00:43:30;0.20;99.90
52867;DHT22;38739;53.324;6.862;2024-01-07T00:45:55;0.10;99.90
52867;DHT22;38739;53.324;6.862;2024-01-07T00:48:21;0.10;99.90
52867;DHT22;38739;53.324;6.862;2024-01-07T00:50:47;0.20;99.90
52867;DHT22;38739;53.324;6.862;2024-01-07T00:53:12;0.10;99.90
52867;DHT22;38739;53.324;6.862;2024-01-07T00:55:38;0.10;99.90
52867;DHT22;38739;53.324;6.862;2024-01-07T00:58:04;0.10;99.90
52867;DHT22;38739;53.324;6.862;2024-01-07T01:00:29;0.10;99.90
52867;DHT22;38739;53.324;6.862;2024-01-07T01:02:55;0.10;99.90
52867;DHT22;38739;53.324;6.862;2024-01-07T01:05:21;0.00;99.90
52867;DHT22;38739;53.324;6.862;2024-01-07T01:07:47;0.00;99.90
52867;DHT22;38739;53.324;6.862;2024-01-07T01:10:12;0.00;99.90
52867;DHT22;38739;53.324;6.862;2024-01-07T01:12:42;0.00;99.90
52867;DHT22;38739;53.324;6.862;2024-01-07T01:15:08;0.00;99.90
52867;DHT22;38739;53.324;6.862;2024-01-07T01:17:34;0.00;99.90
52867;DHT22;38739;53.324;6.862;2024-01-07T01:19:59;0.00;99.90
52867;DHT22;38739;53.324;6.862;2024-01-07T01:22:25;0.00;99.90
52867;DHT22;38739;53.324;6.862;2024-01-07T01:24:51;0.00;99.90
52867;DHT22;38739;53.324;6.862;2024-01-07T01:27:18;0.00;99.90
52867;DHT22;38739;53.324;6.862;2024-01-07T01:29:44;0.00;99.90
52867;DHT22;38739;53.324;6.862;2024-01-07T01:32:10;0.00;99.90
52867;DHT22;38739;53.324;6.862;2024-01-07T01:34:36;0.00;99.90
52867;DHT22;38739;53.324;6.862;2024-01-07T01:37:03;0.00;99.90
52867;DHT22;38739;53.324;6.862;2024-01-07T01:39:29;0.00;99.90
52867;DHT22;38739;53.324;6.862;2024-01-07T01:41:55;0.00;99.90
52867;DHT22;38739;53.324;6.862;2024-01-07T01:44:21;0.00;99.90
52867;DHT22;38739;53.324;6.862;2024-01-07T01:46:47;-0.10;99.90
52867;DHT22;38739;53.324;6.862;2024-01-07T01:49:13;0.00;99.90
52867;DHT22;38739;53.324;6.862;2024-01-07T01:51:39;0.00;99.90
52867;DHT22;38739;53.324;6.862;2024-01-07T01:54:05;0.00;99.90
52867;DHT22;38739;53.324;6.862;2024-01-07T01:56:32;0.00;99.90
52867;DHT22;38739;53.324;6.862;2024-01-07T01:58:59;0.00;99.90
52867;DHT22;38739;53.324;6.862;2024-01-07T02:01:25;0.00;99.90
52867;DHT22;38739;53.324;6.862;2024-01-07T02:03:51;0.00;99.90
52867;DHT22;38739;53.324;6.862;2024-01-07T02:06:20;0.00;99.90
52867;DHT22;38739;53.324;6.862;2024-01-07T02:08:46;0.00;99.90
52867;DHT22;38739;53.324;6.862;2024-01-07T02:11:20;0.00;99.90
52867;DHT22;38739;53.324;6.862;2024-01-07T02:13:45;0.00;99.90
52867;DHT22;38739;53.324;6.862;2024-01-07T02:16:11;0.00;99.90
52867;DHT22;38739;53.324;6.862;2024-01-07T02:18:42;0.00;99.90
52867;DHT22;38739;53.324;6.862;2024-01-07T02:21:09;-0.10;99.90
52867;DHT22;38739;53.324;6.862;2024-01-07T02:23:35;0.00;99.90
52867;DHT22;38739;53.324;6.862;2024-01-07T02:26:01;0.00;99.90
52867;DHT22;38739;53.324;6.862;2024-01-07T02:28:28;0.00;99.90
52867;DHT22;38739;53.324;6.862;2024-01-07T02:30:54;0.00;99.90
52867;DHT22;38739;53.324;6.862;2024-01-07T02:33:19;0.00;99.90
52867;DHT22;38739;53.324;6.862;2024-01-07T02:35:45;0.00;99.90
52867;DHT22;38739;53.324;6.862;2024-01-07T02:38:11;0.00;99.90
52867;DHT22;38739;53.324;6.862;2024-01-07T02:40:37;0.00;99.90
52867;DHT22;38739;53.324;6.862;2024-01-07T02:43:02;0.00;99.90
52867;DHT22;38739;53.324;6.862;2024-01-07T02:45:28;0.00;99.90
52867;DHT22;38739;53.324;6.862;2024-01-07T02:47:53;0.00;99.90
52867;DHT22;38739;53.324;6.862;2024-01-07T02:50:19;0.00;99.90
52867;DHT22;38739;53.324;6.862;2024-01-07T02:52:45;0.00;99.90
52867;DHT22;38739;53.324;6.862;2024-01-07T02:55:10;0.00;99.90
52867;DHT22;38739;53.324;6.862;2024-01-07T02:57:36;0.00;99.90
52867;DHT22;38739;53.324;6.862;2024-01-07T03:00:02;0.00;99.90
52867;DHT22;38739;53.324;6.862;2024-01-07T03:02:30;0.00;99.90
52867;DHT22;38739;53.324;6.862;2024-01-07T03:04:56;0.00;99.90
52867;DHT22;38739;53.324;6.862;2024-01-07T03:07:21;0.00;99.90
52867;DHT22;38739;53.324;6.862;2024-01-07T03:09:48;0.00;99.90
52867;DHT22;38739;53.324;6.862;2024-01-07T03:12:15;0.00;99.90
52867;DHT22;38739;53.324;6.862;2024-01-07T03:14:41;0.00;99.90
52867;DHT22;38739;53.324;6.862;2024-01-07T03:17:07;0.00;99.90
52867;DHT22;38739;53.324;6.862;2024-01-07T03:19:33;0.00;99.90
52867;DHT22;38739;53.324;6.862;2024-01-07T03:21:58;0.00;99.90
52867;DHT22;38739;53.324;6.862;2024-01-07T03:24:24;0.00;99.90
52867;DHT22;38739;53.324;6.862;2024-01-07T03:26:50;0.00;99.90
52867;DHT22;38739;53.324;6.862;2024-01-07T03:29:15;0.00;99.90
52867;DHT22;38739;53.324;6.862;2024-01-07T03:31:41;0.00;99.90
52867;DHT22;38739;53.324;6.862;2024-01-07T03:34:07;0.00;99.90
52867;DHT22;38739;53.324;6.862;2024-01-07T03:36:32;-0.10;99.90
52867;DHT22;38739;53.324;6.862;2024-01-07T03:38:58;-0.10;99.90
52867;DHT22;38739;53.324;6.862;2024-01-07T03:41:24;-0.10;99.90
52867;DHT22;38739;53.324;6.862;2024-01-07T03:43:49;-0.10;99.90
52867;DHT22;38739;53.324;6.862;2024-01-07T03:46:16;-0.10;99.90
52867;DHT22;38739;53.324;6.862;2024-01-07T03:48:42;0.00;99.90
52867;DHT22;38739;53.324;6.862;2024-01-07T03:51:08;0.00;99.90
52867;DHT22;38739;53.324;6.862;2024-01-07T03:53:34;0.00;99.90
52867;DHT22;38739;53.324;6.862;2024-01-07T03:56:00;-0.10;99.90
52867;DHT22;38739;53.324;6.862;2024-01-07T03:58:25;-0.10;99.90
52867;DHT22;38739;53.324;6.862;2024-01-07T04:00:51;0.00;99.90
52867;DHT22;38739;53.324;6.862;2024-01-07T04:03:17;-0.10;99.90
52867;DHT22;38739;53.324;6.862;2024-01-07T04:05:42;-0.10;99.90
52867;DHT22;38739;53.324;6.862;2024-01-07T04:08:12;-0.10;99.90
52867;DHT22;38739;53.324;6.862;2024-01-07T04:10:37;-0.10;99.90
52867;DHT22;38739;53.324;6.862;2024-01-07T04:13:04;-0.10;99.90
52867;DHT22;38739;53.324;6.862;2024-01-07T04:15:32;-0.10;99.90
52867;DHT22;38739;53.324;6.862;2024-01-07T04:18:01;0.00;99.90
52867;DHT22;38739;53.324;6.862;2024-01-07T04:20:28;0.00;99.90
52867;DHT22;38739;53.324;6.862;2024-01-07T04:22:53;-0.10;99.90
52867;DHT22;38739;53.324;6.862;2024-01-07T04:25:19;-0.10;99.90
52867;DHT22;38739;53.324;6.862;2024-01-07T04:27:45;-0.10;99.90
52867;DHT22;38739;53.324;6.862;2024-01-07T04:30:10;-0.10;99.90
52867;DHT22;38739;53.324;6.862;2024-01-07T04:32:36;0.00;99.90
52867;DHT22;38739;53.324;6.862;2024-01-07T04:35:02;0.00;99.90
52867;DHT22;38739;53.324;6.862;2024-01-07T04:37:28;0.00;99.90
52867;DHT22;38739;53.324;6.862;2024-01-07T04:39:53;0.00;99.90
52867;DHT22;38739;53.324;6.862;2024-01-07T04:42:19;0.00;99.90
52867;DHT22;38739;53.324;6.862;2024-01-07T04:44:45;0.00;99.90
52867;DHT22;38739;53.324;6.862;2024-01-07T04:47:43;0.00;99.90
52867;DHT22;38739;53.324;6.862;2024-01-07T04:50:09;0.00;99.90
52867;DHT22;38739;53.324;6.862;2024-01-07T04:52:34;0.00;99.90
52867;DHT22;38739;53.324;6.862;2024-01-07T04:55:00;0.00;99.90
52867;DHT22;38739;53.324;6.862;2024-01-07T04:57:26;0.00;99.90
52867;DHT22;38739;53.324;6.862;2024-01-07T04:59:51;0.00;99.90
52867;DHT22;38739;53.324;6.862;2024-01-07T05:02:18;0.00;99.90
52867;DHT22;38739;53.324;6.862;2024-01-07T05:04:43;0.00;99.90
52867;DHT22;38739;53.324;6.862;2024-01-07T05:07:09;0.00;99.90
52867;DHT22;38739;53.324;6.862;2024-01-07T05:09:35;0.00;99.90
52867;DHT22;38739;53.324;6.862;2024-01-07T05:12:00;0.00;99.90
52867;DHT22;38739;53.324;6.862;2024-01-07T05:14:26;0.00;99.90
52867;DHT22;38739;53.324;6.862;2024-01-07T05:16:56;0.00;99.90
52867;DHT22;38739;53.324;6.862;2024-01-07T05:19:21;0.00;99.90
52867;DHT22;38739;53.324;6.862;2024-01-07T05:21:47;0.00;99.90
52867;DHT22;38739;53.324;6.862;2024-01-07T05:24:13;0.00;99.90
52867;DHT22;38739;53.324;6.862;2024-01-07T05:26:42;0.00;99.90
52867;DHT22;38739;53.324;6.862;2024-01-07T05:29:08;0.00;99.90
52867;DHT22;38739;53.324;6.862;2024-01-07T05:31:34;0.00;99.90
52867;DHT22;38739;53.324;6.862;2024-01-07T05:34:00;0.00;99.90
52867;DHT22;38739;53.324;6.862;2024-01-07T05:36:26;0.00;99.90
52867;DHT22;38739;53.324;6.862;2024-01-07T05:38:51;0.00;99.90
52867;DHT22;38739;53.324;6.862;2024-01-07T05:41:17;0.00;99.90
52867;DHT22;38739;53.324;6.862;2024-01-07T05:43:43;0.10;99.90
52867;DHT22;38739;53.324;6.862;2024-01-07T05:46:08;0.10;99.90
52867;DHT22;38739;53.324;6.862;2024-01-07T05:48:44;0.10;99.90
52867;DHT22;38739;53.324;6.862;2024-01-07T05:51:11;0.10;99.90
52867;DHT22;38739;53.324;6.862;2024-01-07T05:53:37;0.10;99.90
52867;DHT22;38739;53.324;6.862;2024-01-07T05:56:03;0.10;99.90
52867;DHT22;38739;53.324;6.862;2024-01-07T05:58:29;0.10;99.90
52867;DHT22;38739;53.324;6.862;2024-01-07T06:00:55;0.10;99.90
52867;DHT22;38739;53.324;6.862;2024-01-07T06:03:21;0.10;99.90
52867;DHT22;38739;53.324;6.862;2024-01-07T06:05:46;0.00;99.90
52867;DHT22;38739;53.324;6.862;2024-01-07T06:08:12;0.10;99.90
52867;DHT22;38739;53.324;6.862;2024-01-07T06:10:39;0.10;99.90
52867;DHT22;38739;53.324;6.862;2024-01-07T06:13:04;0.00;99.90
52867;DHT22;38739;53.324;6.862;2024-01-07T06:15:30;0.00;99.90
52867;DHT22;38739;53.324;6.862;2024-01-07T06:17:56;0.00;99.90
52867;DHT22;38739;53.324;6.862;2024-01-07T06:20:22;0.00;99.90
52867;DHT22;38739;53.324;6.862;2024-01-07T06:22:48;0.00;99.90
52867;DHT22;38739;53.324;6.862;2024-01-07T06:25:14;0.00;99.90
52867;DHT22;38739;53.324;6.862;2024-01-07T06:27:39;0.00;99.90
52867;DHT22;38739;53.324;6.862;2024-01-07T06:30:05;0.00;99.90
52867;DHT22;38739;53.324;6.862;2024-01-07T06:32:31;0.00;99.90
52867;DHT22;38739;53.324;6.862;2024-01-07T06:34:58;0.00;99.90
52867;DHT22;38739;53.324;6.862;2024-01-07T06:37:24;0.00;99.90
52867;DHT22;38739;53.324;6.862;2024-01-07T06:39:50;0.00;99.90
52867;DHT22;38739;53.324;6.862;2024-01-07T06:42:16;-0.10;99.90
52867;DHT22;38739;53.324;6.862;2024-01-07T06:44:42;-0.10;99.90
52867;DHT22;38739;53.324;6.862;2024-01-07T06:47:08;-0.10;99.90
52867;DHT22;38739;53.324;6.862;2024-01-07T06:49:33;-0.10;99.90
52867;DHT22;38739;53.324;6.862;2024-01-07T06:51:59;-0.10;99.90
52867;DHT22;38739;53.324;6.862;2024-01-07T06:54:25;-0.20;99.90
52867;DHT22;38739;53.324;6.862;2024-01-07T06:56:50;-0.20;99.90
52867;DHT22;38739;53.324;6.862;2024-01-07T06:59:16;-0.20;99.90
52867;DHT22;38739;53.324;6.862;2024-01-07T07:01:42;-0.30;99.90
52867;DHT22;38739;53.324;6.862;2024-01-07T07:04:08;-0.30;99.90
52867;DHT22;38739;53.324;6.862;2024-01-07T07:06:33;-0.30;99.90
52867;DHT22;38739;53.324;6.862;2024-01-07T07:09:00;-0.30;99.90
52867;DHT22;38739;53.324;6.862;2024-01-07T07:11:26;-0.30;99.90
52867;DHT22;38739;53.324;6.862;2024-01-07T07:13:51;-0.30;99.90
52867;DHT22;38739;53.324;6.862;2024-01-07T07:16:17;-0.40;99.90
52867;DHT22;38739;53.324;6.862;2024-01-07T07:18:43;-0.30;99.90
52867;DHT22;38739;53.324;6.862;2024-01-07T07:21:08;-0.30;99.90
52867;DHT22;38739;53.324;6.862;2024-01-07T07:23:34;-0.20;99.90
52867;DHT22;38739;53.324;6.862;2024-01-07T07:26:00;-0.20;99.90
52867;DHT22;38739;53.324;6.862;2024-01-07T07:28:25;-0.20;99.90
52867;DHT22;38739;53.324;6.862;2024-01-07T07:30:52;-0.20;99.90
52867;DHT22;38739;53.324;6.862;2024-01-07T07:33:18;-0.20;99.90
52867;DHT22;38739;53.324;6.862;2024-01-07T07:35:44;-0.10;99.90
52867;DHT22;38739;53.324;6.862;2024-01-07T07:38:09;-0.10;99.90
52867;DHT22;38739;53.324;6.862;2024-01-07T07:40:35;-0.10;99.90
52867;DHT22;38739;53.324;6.862;2024-01-07T07:43:01;-0.10;99.90
52867;DHT22;38739;53.324;6.862;2024-01-07T07:45:26;-0.10;99.90
52867;DHT22;38739;53.324;6.862;2024-01-07T07:47:52;-0.10;99.90
52867;DHT22;38739;53.324;6.862;2024-01-07T07:50:18;-0.10;99.90
52867;DHT22;38739;53.324;6.862;2024-01-07T07:52:43;-0.10;99.90
52867;DHT22;38739;53.324;6.862;2024-01-07T07:55:10;-0.10;99.90
52867;DHT22;38739;53.324;6.862;2024-01-07T07:57:36;-0.10;99.90
52867;DHT22;38739;53.324;6.862;2024-01-07T08:00:04;-0.10;99.90
52867;DHT22;38739;53.324;6.862;2024-01-07T08:02:30;-0.10;99.90
52867;DHT22;38739;53.324;6.862;2024-01-07T08:04:56;-0.10;99.90
52867;DHT22;38739;53.324;6.862;2024-01-07T08:07:22;0.00;99.90
52867;DHT22;38739;53.324;6.862;2024-01-07T08:09:47;-0.10;99.90
52867;DHT22;38739;53.324;6.862;2024-01-07T08:12:13;0.00;99.90
52867;DHT22;38739;53.324;6.862;2024-01-07T08:14:38;0.00;99.90
52867;DHT22;38739;53.324;6.862;2024-01-07T08:17:07;0.00;99.90
52867;DHT22;38739;53.324;6.862;2024-01-07T08:19:33;0.00;99.90
52867;DHT22;38739;53.324;6.862;2024-01-07T08:21:58;0.00;99.90
52867;DHT22;38739;53.324;6.862;2024-01-07T08:24:24;0.00;99.90
52867;DHT22;38739;53.324;6.862;2024-01-07T08:26:50;0.00;99.90
52867;DHT22;38739;53.324;6.862;2024-01-07T08:29:17;0.10;99.90
52867;DHT22;38739;53.324;6.862;2024-01-07T08:31:43;0.10;99.90
52867;DHT22;38739;53.324;6.862;2024-01-07T08:34:08;0.10;99.90
52867;DHT22;38739;53.324;6.862;2024-01-07T08:36:34;0.10;99.90
52867;DHT22;38739;53.324;6.862;2024-01-07T08:39:00;0.10;99.90
52867;DHT22;38739;53.324;6.862;2024-01-07T08:41:26;0.20;99.90
52867;DHT22;38739;53.324;6.862;2024-01-07T08:43:52;0.20;99.90
52867;DHT22;38739;53.324;6.862;2024-01-07T08:46:20;0.20;99.90
52867;DHT22;38739;53.324;6.862;2024-01-07T08:48:46;0.20;99.90
52867;DHT22;38739;53.324;6.862;2024-01-07T08:51:12;0.20;99.90
52867;DHT22;38739;53.324;6.862;2024-01-07T08:53:39;0.20;99.90
52867;DHT22;38739;53.324;6.862;2024-01-07T08:56:05;0.30;99.90
52867;DHT22;38739;53.324;6.862;2024-01-07T08:58:32;0.30;99.90
52867;DHT22;38739;53.324;6.862;2024-01-07T09:00:58;0.30;99.90
52867;DHT22;38739;53.324;6.862;2024-01-07T09:03:23;0.30;99.90
52867;DHT22;38739;53.324;6.862;2024-01-07T09:05:50;0.30;99.90
52867;DHT22;38739;53.324;6.862;2024-01-07T09:08:15;0.40;99.90
52867;DHT22;38739;53.324;6.862;2024-01-07T09:10:41;0.40;99.90
52867;DHT22;38739;53.324;6.862;2024-01-07T09:13:07;0.40;99.90
52867;DHT22;38739;53.324;6.862;2024-01-07T09:15:32;0.40;99.90
52867;DHT22;38739;53.324;6.862;2024-01-07T09:17:58;0.40;99.90
52867;DHT22;38739;53.324;6.862;2024-01-07T09:20:24;0.40;99.90
52867;DHT22;38739;53.324;6.862;2024-01-07T09:22:50;0.50;99.90
52867;DHT22;38739;53.324;6.862;2024-01-07T09:25:15;0.50;99.90
52867;DHT22;38739;53.324;6.862;2024-01-07T09:27:42;0.50;99.90
52867;DHT22;38739;53.324;6.862;2024-01-07T09:30:09;0.50;99.90
52867;DHT22;38739;53.324;6.862;2024-01-07T09:32:41;0.60;99.90
52867;DHT22;38739;53.324;6.862;2024-01-07T09:35:07;0.60;99.90
52867;DHT22;38739;53.324;6.862;2024-01-07T09:37:33;0.60;99.90
52867;DHT22;38739;53.324;6.862;2024-01-07T09:39:58;0.70;99.90
52867;DHT22;38739;53.324;6.862;2024-01-07T09:42:24;0.70;99.90
52867;DHT22;38739;53.324;6.862;2024-01-07T09:44:50;0.70;99.90
52867;DHT22;38739;53.324;6.862;2024-01-07T09:47:16;0.80;99.90
52867;DHT22;38739;53.324;6.862;2024-01-07T09:49:43;0.80;99.90
52867;DHT22;38739;53.324;6.862;2024-01-07T09:52:10;0.80;99.90
52867;DHT22;38739;53.324;6.862;2024-01-07T09:54:37;0.80;99.90
52867;DHT22;38739;53.324;6.862;2024-01-07T09:57:09;0.70;99.90
52867;DHT22;38739;53.324;6.862;2024-01-07T09:59:36;0.80;99.90
52867;DHT22;38739;53.324;6.862;2024-01-07T10:02:03;0.70;99.90
52867;DHT22;38739;53.324;6.862;2024-01-07T10:04:29;0.70;99.90
52867;DHT22;38739;53.324;6.862;2024-01-07T10:06:56;0.80;99.90
52867;DHT22;38739;53.324;6.862;2024-01-07T10:09:22;0.90;99.90
52867;DHT22;38739;53.324;6.862;2024-01-07T10:11:52;1.00;99.90
52867;DHT22;38739;53.324;6.862;2024-01-07T10:14:18;1.20;99.90
52867;DHT22;38739;53.324;6.862;2024-01-07T10:16:45;1.30;99.90
52867;DHT22;38739;53.324;6.862;2024-01-07T10:19:11;1.30;99.90
52867;DHT22;38739;53.324;6.862;2024-01-07T10:21:37;1.40;99.90
52867;DHT22;38739;53.324;6.862;2024-01-07T10:24:10;1.30;99.90
52867;DHT22;38739;53.324;6.862;2024-01-07T10:26:40;1.30;99.90
52867;DHT22;38739;53.324;6.862;2024-01-07T10:29:07;1.30;99.90
52867;DHT22;38739;53.324;6.862;2024-01-07T10:31:34;1.30;99.90
52867;DHT22;38739;53.324;6.862;2024-01-07T10:33:59;1.20;99.90
52867;DHT22;38739;53.324;6.862;2024-01-07T10:36:25;1.20;99.90
52867;DHT22;38739;53.324;6.862;2024-01-07T10:38:51;1.10;99.90
52867;DHT22;38739;53.324;6.862;2024-01-07T10:41:20;1.10;99.90
52867;DHT22;38739;53.324;6.862;2024-01-07T10:43:47;1.20;99.90
52867;DHT22;38739;53.324;6.862;2024-01-07T10:46:14;1.20;99.90
52867;DHT22;38739;53.324;6.862;2024-01-07T10:48:55;1.30;99.90
52867;DHT22;38739;53.324;6.862;2024-01-07T10:51:23;1.40;99.90
52867;DHT22;38739;53.324;6.862;2024-01-07T10:53:52;1.50;99.90
52867;DHT22;38739;53.324;6.862;2024-01-07T10:56:28;1.70;99.90
52867;DHT22;38739;53.324;6.862;2024-01-07T10:58:55;1.70;99.90
52867;DHT22;38739;53.324;6.862;2024-01-07T11:01:21;1.80;99.90
52867;DHT22;38739;53.324;6.862;2024-01-07T11:04:06;1.90;99.90
52867;DHT22;38739;53.324;6.862;2024-01-07T11:06:42;1.90;99.90
52867;DHT22;38739;53.324;6.862;2024-01-07T11:09:24;2.00;99.90
52867;DHT22;38739;53.324;6.862;2024-01-07T11:11:52;2.00;99.90
52867;DHT22;38739;53.324;6.862;2024-01-07T11:14:38;2.00;99.90
52867;DHT22;38739;53.324;6.862;2024-01-07T11:17:11;2.00;99.90
52867;DHT22;38739;53.324;6.862;2024-01-07T11:19:37;2.00;99.90
52867;DHT22;38739;53.324;6.862;2024-01-07T11:22:22;2.10;99.90
52867;DHT22;38739;53.324;6.862;2024-01-07T11:24:50;2.20;99.90
52867;DHT22;38739;53.324;6.862;2024-01-07T11:27:16;2.20;99.90
52867;DHT22;38739;53.324;6.862;2024-01-07T11:29:53;2.20;99.90
52867;DHT22;38739;53.324;6.862;2024-01-07T11:32:18;2.10;99.90
52867;DHT22;38739;53.324;6.862;2024-01-07T11:34:44;2.00;99.90
52867;DHT22;38739;53.324;6.862;2024-01-07T11:37:13;2.00;99.90
52867;DHT22;38739;53.324;6.862;2024-01-07T11:39:43;2.00;99.90
52867;DHT22;38739;53.324;6.862;2024-01-07T11:42:09;1.90;99.90
52867;DHT22;38739;53.324;6.862;2024-01-07T11:44:37;1.90;99.90
52867;DHT22;38739;53.324;6.862;2024-01-07T11:47:04;1.70;99.90
52867;DHT22;38739;53.324;6.862;2024-01-07T11:49:32;1.70;99.90
52867;DHT22;38739;53.324;6.862;2024-01-07T11:51:58;1.70;99.90
52867;DHT22;38739;53.324;6.862;2024-01-07T11:54:23;1.70;99.90
52867;DHT22;38739;53.324;6.862;2024-01-07T11:56:49;1.70;99.90
52867;DHT22;38739;53.324;6.862;2024-01-07T11:59:15;1.60;99.90
52867;DHT22;38739;53.324;6.862;2024-01-07T12:01:40;1.70;99.90
52867;DHT22;38739;53.324;6.862;2024-01-07T12:04:06;1.80;99.90
52867;DHT22;38739;53.324;6.862;2024-01-07T12:06:33;1.90;99.90
52867;DHT22;38739;53.324;6.862;2024-01-07T12:08:59;2.00;99.90
52867;DHT22;38739;53.324;6.862;2024-01-07T12:11:25;2.00;99.90
52867;DHT22;38739;53.324;6.862;2024-01-07T12:13:51;1.90;99.90
52867;DHT22;38739;53.324;6.862;2024-01-07T12:16:17;1.90;99.90
52867;DHT22;38739;53.324;6.862;2024-01-07T12:18:43;1.70;99.90
52867;DHT22;38739;53.324;6.862;2024-01-07T12:21:08;1.60;99.90
52867;DHT22;38739;53.324;6.862;2024-01-07T12:23:37;1.50;99.90
52867;DHT22;38739;53.324;6.862;2024-01-07T12:26:10;1.40;99.90
52867;DHT22;38739;53.324;6.862;2024-01-07T12:28:37;1.30;99.90
52867;DHT22;38739;53.324;6.862;2024-01-07T12:31:07;1.20;99.90
52867;DHT22;38739;53.324;6.862;2024-01-07T12:33:33;1.20;99.90
52867;DHT22;38739;53.324;6.862;2024-01-07T12:36:00;1.10;99.90
52867;DHT22;38739;53.324;6.862;2024-01-07T12:38:29;1.10;99.90
52867;DHT22;38739;53.324;6.862;2024-01-07T12:40:55;1.00;99.90
52867;DHT22;38739;53.324;6.862;2024-01-07T12:43:21;1.10;99.90
52867;DHT22;38739;53.324;6.862;2024-01-07T12:45:50;1.10;99.90
52867;DHT22;38739;53.324;6.862;2024-01-07T12:48:16;1.10;99.90
52867;DHT22;38739;53.324;6.862;2024-01-07T12:50:41;1.20;99.90
52867;DHT22;38739;53.324;6.862;2024-01-07T12:53:07;1.20;99.90
52867;DHT22;38739;53.324;6.862;2024-01-07T12:55:33;1.20;99.90
52867;DHT22;38739;53.324;6.862;2024-01-07T12:57:59;1.20;99.90
52867;DHT22;38739;53.324;6.862;2024-01-07T13:00:25;1.30;99.90
52867;DHT22;38739;53.324;6.862;2024-01-07T13:02:52;1.40;99.90
52867;DHT22;38739;53.324;6.862;2024-01-07T13:05:17;1.50;99.90
52867;DHT22;38739;53.324;6.862;2024-01-07T13:07:44;1.60;99.90
52867;DHT22;38739;53.324;6.862;2024-01-07T13:10:10;1.50;99.90
52867;DHT22;38739;53.324;6.862;2024-01-07T13:12:36;1.50;99.90
52867;DHT22;38739;53.324;6.862;2024-01-07T13:15:02;1.50;99.90
52867;DHT22;38739;53.324;6.862;2024-01-07T13:17:29;1.40;99.90
52867;DHT22;38739;53.324;6.862;2024-01-07T13:19:56;1.40;99.90
52867;DHT22;38739;53.324;6.862;2024-01-07T13:22:22;1.30;99.90
52867;DHT22;38739;53.324;6.862;2024-01-07T13:24:47;1.20;99.90
52867;DHT22;38739;53.324;6.862;2024-01-07T13:27:13;1.10;99.90
52867;DHT22;38739;53.324;6.862;2024-01-07T13:29:39;1.00;99.90
52867;DHT22;38739;53.324;6.862;2024-01-07T13:32:05;1.00;99.90
52867;DHT22;38739;53.324;6.862;2024-01-07T13:34:31;0.90;99.90
52867;DHT22;38739;53.324;6.862;2024-01-07T13:36:57;0.80;99.90
52867;DHT22;38739;53.324;6.862;2024-01-07T13:39:22;0.80;99.90
52867;DHT22;38739;53.324;6.862;2024-01-07T13:41:48;0.80;99.90
52867;DHT22;38739;53.324;6.862;2024-01-07T13:44:14;0.80;99.90
52867;DHT22;38739;53.324;6.862;2024-01-07T13:46:46;0.70;99.90
52867;DHT22;38739;53.324;6.862;2024-01-07T13:49:13;0.70;99.90
52867;DHT22;38739;53.324;6.862;2024-01-07T13:51:40;0.70;99.90
52867;DHT22;38739;53.324;6.862;2024-01-07T13:54:06;0.70;99.90
52867;DHT22;38739;53.324;6.862;2024-01-07T13:56:33;0.70;99.90
52867;DHT22;38739;53.324;6.862;2024-01-07T13:59:01;0.60;99.90
52867;DHT22;38739;53.324;6.862;2024-01-07T14:01:29;0.60;99.90
52867;DHT22;38739;53.324;6.862;2024-01-07T14:03:55;0.60;99.90
52867;DHT22;38739;53.324;6.862;2024-01-07T14:06:21;0.60;99.90
52867;DHT22;38739;53.324;6.862;2024-01-07T14:08:47;0.60;99.90
52867;DHT22;38739;53.324;6.862;2024-01-07T14:11:13;0.60;99.90
52867;DHT22;38739;53.324;6.862;2024-01-07T14:13:38;0.50;99.90
52867;DHT22;38739;53.324;6.862;2024-01-07T14:16:04;0.50;99.90
52867;DHT22;38739;53.324;6.862;2024-01-07T14:18:30;0.50;99.90
52867;DHT22;38739;53.324;6.862;2024-01-07T14:20:56;0.50;99.90
52867;DHT22;38739;53.324;6.862;2024-01-07T14:23:21;0.40;99.90
52867;DHT22;38739;53.324;6.862;2024-01-07T14:25:47;0.50;99.90
52867;DHT22;38739;53.324;6.862;2024-01-07T14:28:13;0.40;99.90
52867;DHT22;38739;53.324;6.862;2024-01-07T14:30:39;0.40;99.90
52867;DHT22;38739;53.324;6.862;2024-01-07T14:33:04;0.40;99.90
52867;DHT22;38739;53.324;6.862;2024-01-07T14:35:30;0.40;99.90
52867;DHT22;38739;53.324;6.862;2024-01-07T14:37:58;0.40;99.90
52867;DHT22;38739;53.324;6.862;2024-01-07T14:40:25;0.30;99.90
52867;DHT22;38739;53.324;6.862;2024-01-07T14:42:51;0.30;99.90
52867;DHT22;38739;53.324;6.862;2024-01-07T14:45:20;0.20;99.90
52867;DHT22;38739;53.324;6.862;2024-01-07T14:47:46;0.20;99.90
52867;DHT22;38739;53.324;6.862;2024-01-07T14:50:12;0.20;99.90
52867;DHT22;38739;53.324;6.862;2024-01-07T14:52:38;0.20;99.90
52867;DHT22;38739;53.324;6.862;2024-01-07T14:55:04;0.10;99.90
52867;DHT22;38739;53.324;6.862;2024-01-07T14:57:30;0.10;99.90
52867;DHT22;38739;53.324;6.862;2024-01-07T14:59:55;0.10;99.90
52867;DHT22;38739;53.324;6.862;2024-01-07T15:02:21;0.00;99.90
52867;DHT22;38739;53.324;6.862;2024-01-07T15:04:47;0.00;99.90
52867;DHT22;38739;53.324;6.862;2024-01-07T15:07:13;0.00;99.90
52867;DHT22;38739;53.324;6.862;2024-01-07T15:09:38;0.00;99.90
52867;DHT22;38739;53.324;6.862;2024-01-07T15:12:06;-0.10;99.90
52867;DHT22;38739;53.324;6.862;2024-01-07T15:14:32;-0.10;99.90
52867;DHT22;38739;53.324;6.862;2024-01-07T15:16:58;-0.10;99.90
52867;DHT22;38739;53.324;6.862;2024-01-07T15:19:24;-0.10;99.90
52867;DHT22;38739;53.324;6.862;2024-01-07T15:21:50;-0.20;99.90
52867;DHT22;38739;53.324;6.862;2024-01-07T15:24:16;-0.20;99.90
52867;DHT22;38739;53.324;6.862;2024-01-07T15:26:42;-0.20;99.90
52867;DHT22;38739;53.324;6.862;2024-01-07T15:29:08;-0.20;99.90
52867;DHT22;38739;53.324;6.862;2024-01-07T15:31:34;-0.30;99.90
52867;DHT22;38739;53.324;6.862;2024-01-07T15:33:59;-0.30;99.90
52867;DHT22;38739;53.324;6.862;2024-01-07T15:36:25;-0.30;99.90
52867;DHT22;38739;53.324;6.862;2024-01-07T15:38:54;-0.30;99.90